Time;durP1;ratioP1;P1;durP2;ratioP2;P2;SDS_P1;SDS_P2;PMS_P1;PMS_P2;Temp;Humidity;BMP_temperature;BMP_pressure;BME280_temperature;BME280_humidity;BME280_pressure;Samples;Min_cycle;Max_cycle;Signal;HPM_P1;HPM_P2
2022/03/15 00:01:19;;;;;;;0.00;0.00;;;;;;;25.57;21.90;102720.25;10516425;28;20044;-81
2022/03/15 00:06:20;;;;;;;0.75;0.75;;;;;;;25.01;22.40;102721.47;10514032;28;20519;-81
2022/03/15 00:11:22;;;;;;;0.00;0.00;;;;;;;24.58;23.47;102718.13;10521490;28;20439;-81
2022/03/15 00:16:24;;;;;;;0.00;0.00;;;;;;;24.40;23.83;102722.59;10519340;28;20051;-81
2022/03/15 00:21:25;;;;;;;0.00;0.00;;;;;;;24.12;23.60;102717.44;10513837;28;20048;-81
2022/03/15 00:26:28;;;;;;;0.00;0.00;;;;;;;24.91;22.65;102711.84;10536568;28;20225;-80
2022/03/15 00:31:29;;;;;;;0.20;0.20;;;;;;;24.85;22.64;102714.53;10526173;28;20082;-81
2022/03/15 00:36:35;;;;;;;0.00;0.00;;;;;;;20.75;29.02;102732.16;10523413;28;20044;-81
2022/03/15 00:42:02;;;;;;;0.00;0.00;;;;;;;22.21;26.65;102715.19;10514424;28;20128;-80
2022/03/15 00:47:05;;;;;;;0.00;0.00;;;;;;;23.94;24.01;102705.16;10501906;28;20051;-81
2022/03/15 00:52:07;;;;;;;0.00;0.00;;;;;;;25.34;21.57;102698.41;10535318;28;20063;-80
2022/03/15 00:57:08;;;;;;;0.00;0.00;;;;;;;24.58;23.17;102703.22;10524707;28;20044;-81
2022/03/15 01:02:10;;;;;;;0.00;0.00;;;;;;;22.38;25.56;102708.28;10534165;28;20071;-81
2022/03/15 01:07:12;;;;;;;0.00;0.00;;;;;;;22.26;25.94;102726.59;10535183;28;20044;-81
2022/03/15 01:12:15;;;;;;;0.00;0.00;;;;;;;23.68;24.12;102711.28;10519916;28;20582;-81
2022/03/15 01:17:16;;;;;;;0.00;0.00;;;;;;;24.04;24.19;102709.53;10526520;28;20164;-80
2022/03/15 01:22:18;;;;;;;0.00;0.00;;;;;;;24.48;23.02;102699.75;10523424;28;20032;-81
2022/03/15 01:27:21;;;;;;;0.00;0.00;;;;;;;23.95;23.41;102691.09;10531568;28;20043;-81
2022/03/15 01:32:22;;;;;;;0.00;0.00;;;;;;;23.65;23.52;102684.09;10514104;28;20478;-81
2022/03/15 01:37:24;;;;;;;0.00;0.00;;;;;;;23.92;23.46;102677.94;10531212;28;20072;-81
2022/03/15 01:42:26;;;;;;;0.00;0.00;;;;;;;23.88;23.57;102666.53;10517827;28;20056;-81
2022/03/15 01:47:31;;;;;;;0.00;0.00;;;;;;;23.45;23.99;102662.19;10505051;28;20392;-81
2022/03/15 01:52:33;;;;;;;0.00;0.00;;;;;;;24.30;22.93;102658.56;10523320;28;20048;-81
2022/03/15 01:57:34;;;;;;;0.00;0.00;;;;;;;24.77;22.87;102653.06;10519933;28;20124;-81
2022/03/15 02:02:38;;;;;;;0.00;0.00;;;;;;;23.60;23.50;102652.53;10520571;28;20036;-81
2022/03/15 02:07:41;;;;;;;0.00;0.00;;;;;;;24.59;22.96;102639.09;10512964;28;20043;-81
2022/03/15 02:12:42;;;;;;;0.00;0.00;;;;;;;23.80;23.87;102633.19;10519465;28;20449;-81
2022/03/15 02:17:44;;;;;;;0.00;0.00;;;;;;;24.51;23.25;102635.63;10527972;28;20102;-80
2022/03/15 02:22:45;;;;;;;0.05;0.05;;;;;;;24.51;22.73;102627.72;10537864;28;20079;-81
2022/03/15 02:27:47;;;;;;;0.00;0.00;;;;;;;24.19;23.54;102639.28;10531043;28;20032;-81
2022/03/15 02:32:49;;;;;;;0.00;0.00;;;;;;;24.42;22.88;102619.84;10526258;28;20119;-82
2022/03/15 02:37:50;;;;;;;0.00;0.00;;;;;;;25.11;21.97;102610.66;10520932;28;20043;-82
2022/03/15 02:42:52;;;;;;;0.00;0.00;;;;;;;24.77;22.47;102608.25;10535581;28;20082;-81
2022/03/15 02:48:00;;;;;;;0.00;0.00;;;;;;;24.20;23.05;102622.59;10523223;28;20044;-81
2022/03/15 02:53:02;;;;;;;0.05;0.05;;;;;;;24.91;22.44;102609.03;10520651;28;20048;-82
2022/03/15 02:58:04;;;;;;;0.00;0.00;;;;;;;24.59;23.16;102610.13;10547141;28;20075;-82
2022/03/15 03:03:06;;;;;;;0.00;0.00;;;;;;;24.35;23.10;102597.97;10531264;28;20135;-81
2022/03/15 03:08:10;;;;;;;0.00;0.00;;;;;;;24.71;22.79;102588.97;10527362;28;20093;-82
2022/03/15 03:13:12;;;;;;;0.75;0.75;;;;;;;24.16;23.37;102598.03;10539770;28;20454;-81
2022/03/15 03:18:15;;;;;;;0.00;0.00;;;;;;;25.23;22.18;102584.19;10538876;28;20097;-81
2022/03/15 03:23:17;;;;;;;0.00;0.00;;;;;;;24.81;22.68;102586.28;10533419;28;20059;-81
2022/03/15 03:28:19;;;;;;;0.00;0.00;;;;;;;24.98;22.76;102579.09;10524469;28;20479;-81
2022/03/15 03:33:21;;;;;;;0.00;0.00;;;;;;;24.77;23.08;102584.53;10537151;28;20147;-81
2022/03/15 03:38:22;;;;;;;0.00;0.00;;;;;;;24.79;22.93;102594.22;10536871;28;20045;-81
2022/03/15 03:43:25;;;;;;;0.00;0.00;;;;;;;24.02;24.02;102595.44;10510021;28;20067;-82
2022/03/15 03:48:26;;;;;;;0.00;0.00;;;;;;;24.99;22.58;102580.88;10545277;28;20076;-81
2022/03/15 03:53:28;;;;;;;0.00;0.00;;;;;;;24.57;23.17;102577.63;10528130;28;20093;-81
2022/03/15 03:58:31;;;;;;;0.00;0.00;;;;;;;23.62;24.68;102585.00;10530530;28;20458;-81
2022/03/15 04:03:33;;;;;;;0.00;0.00;;;;;;;24.19;23.41;102576.97;10533144;28;20487;-81
2022/03/15 04:08:35;;;;;;;0.00;0.00;;;;;;;23.26;25.33;102582.41;10522937;28;20468;-81
2022/03/15 04:13:41;;;;;;;0.00;0.00;;;;;;;24.19;24.02;102583.97;10534080;28;20039;-81
2022/03/15 04:18:42;;;;;;;1.40;1.30;;;;;;;24.86;23.21;102582.75;10530319;28;20127;-80
2022/03/15 04:23:45;;;;;;;0.00;0.00;;;;;;;24.67;23.54;102574.09;10543297;28;20487;-79
2022/03/15 04:28:46;;;;;;;0.00;0.00;;;;;;;25.13;22.66;102575.50;10577373;27;20055;-80
2022/03/15 04:33:49;;;;;;;0.00;0.00;;;;;;;23.49;25.47;102583.28;10543412;28;20135;-79
2022/03/15 04:38:50;;;;;;;0.00;0.00;;;;;;;24.23;24.24;102593.63;10544195;28;20079;-79
2022/03/15 04:43:52;;;;;;;0.10;0.10;;;;;;;24.53;23.99;102586.44;10542865;28;20051;-79
2022/03/15 04:48:54;;;;;;;0.00;0.00;;;;;;;24.76;23.75;102577.56;10525989;28;20044;-79
2022/03/15 04:53:55;;;;;;;0.00;0.00;;;;;;;24.52;23.93;102576.78;10526277;28;20079;-80
2022/03/15 04:58:57;;;;;;;0.00;0.00;;;;;;;24.54;23.66;102572.38;10542654;28;20047;-79
2022/03/15 05:03:59;;;;;;;0.00;0.00;;;;;;;24.86;23.49;102566.03;10542948;28;20044;-79
2022/03/15 05:09:01;;;;;;;0.47;0.43;;;;;;;24.36;24.35;102568.97;10542366;28;20054;-79
2022/03/15 05:14:02;;;;;;;0.10;0.10;;;;;;;22.91;26.44;102569.22;10542749;28;20075;-79
2022/03/15 05:19:04;;;;;;;0.00;0.00;;;;;;;23.98;25.40;102561.25;10542202;28;20123;-79
2022/03/15 05:24:05;;;;;;;0.00;0.00;;;;;;;24.86;23.77;102558.13;10542145;28;20450;-79
2022/03/15 05:29:07;;;;;;;0.00;0.00;;;;;;;25.09;23.19;102552.69;10542364;28;20123;-79
2022/03/15 05:34:09;;;;;;;0.00;0.00;;;;;;;25.15;23.14;102557.91;10557853;28;20052;-80
2022/03/15 05:39:12;;;;;;;0.00;0.00;;;;;;;24.70;23.56;102552.97;10540543;28;20499;-79
2022/03/15 05:44:13;;;;;;;0.00;0.00;;;;;;;24.48;24.13;102546.06;10540251;28;20506;-79
2022/03/15 05:49:15;;;;;;;0.00;0.00;;;;;;;24.84;23.79;102554.63;10540093;28;20231;-79
2022/03/15 05:54:18;;;;;;;0.00;0.00;;;;;;;25.02;23.55;102543.94;10541144;28;20123;-79
2022/03/15 05:59:22;;;;;;;0.00;0.00;;;;;;;24.81;23.42;102541.47;10540386;28;20062;-79
2022/03/15 06:04:26;;;;;;;0.13;0.13;;;;;;;24.39;24.25;102541.72;10539568;28;20040;-79
2022/03/15 06:09:28;;;;;;;0.00;0.00;;;;;;;24.46;24.37;102547.84;10539271;28;20556;-79
2022/03/15 06:14:33;;;;;;;0.00;0.00;;;;;;;25.32;23.16;102547.19;10539200;28;20043;-79
2022/03/15 06:19:34;;;;;;;0.00;0.00;;;;;;;23.95;25.02;102548.97;10483488;28;20127;-79
2022/03/15 06:24:37;;;;;;;0.00;0.00;;;;;;;22.37;26.88;102541.13;10498401;28;20464;-80
2022/03/15 06:29:41;;;;;;;0.00;0.00;;;;;;;23.54;25.37;102545.56;10496588;28;20056;-79
2022/03/15 06:34:43;;;;;;;0.00;0.00;;;;;;;25.45;22.94;102542.69;10498175;28;20551;-80
2022/03/15 06:39:48;;;;;;;0.00;0.00;;;;;;;23.84;25.33;102537.59;10496965;28;20567;-80
2022/03/15 06:44:49;;;;;;;0.00;0.00;;;;;;;25.59;23.06;102531.97;10498426;28;20040;-79
2022/03/15 06:49:51;;;;;;;0.00;0.00;;;;;;;25.21;23.52;102533.19;10498093;28;20127;-79
2022/03/15 06:54:52;;;;;;;0.00;0.00;;;;;;;25.13;23.95;102521.88;10498413;28;20036;-79
2022/03/15 06:59:56;;;;;;;0.00;0.00;;;;;;;24.92;24.00;102521.16;10497783;28;20110;-79
2022/03/15 07:04:58;;;;;;;0.00;0.00;;;;;;;25.25;24.03;102524.38;10514129;28;20036;-80
2022/03/15 07:10:01;;;;;;;0.00;0.00;;;;;;;23.69;25.67;102513.06;10514260;28;20103;-79
2022/03/15 07:15:04;;;;;;;0.00;0.00;;;;;;;24.38;25.43;102511.91;10497370;28;20033;-79
2022/03/15 07:20:06;;;;;;;0.00;0.00;;;;;;;24.30;25.33;102505.81;10495931;28;20491;-79
2022/03/15 07:25:08;;;;;;;0.00;0.00;;;;;;;25.09;24.67;102504.31;10495833;28;20466;-79
2022/03/15 07:30:11;;;;;;;0.00;0.00;;;;;;;25.49;24.42;102493.41;10496533;28;20119;-80
2022/03/15 07:35:12;;;;;;;1.55;0.95;;;;;;;23.86;26.21;102484.06;10496987;28;20111;-80
2022/03/15 07:40:14;;;;;;;0.00;0.00;;;;;;;23.88;26.14;102491.94;10499031;28;20071;-80
2022/03/15 07:45:15;;;;;;;0.65;0.65;;;;;;;23.60;26.21;102492.06;10503156;28;20129;-80
2022/03/15 07:50:17;;;;;;;0.08;0.08;;;;;;;24.85;25.50;102486.09;10505567;28;20455;-80
2022/03/15 07:55:21;;;;;;;0.00;0.00;;;;;;;24.40;26.14;102490.81;10503864;28;20049;-80
2022/03/15 08:00:22;;;;;;;1.75;0.52;;;;;;;25.52;24.53;102490.69;10519732;28;20052;-79
2022/03/15 08:05:26;;;;;;;0.30;0.30;;;;;;;26.73;23.57;102479.31;10502329;28;20098;-80
2022/03/15 08:10:27;;;;;;;0.00;0.00;;;;;;;25.16;25.14;102479.63;10502277;28;20135;-80
2022/03/15 08:15:30;;;;;;;0.00;0.00;;;;;;;24.05;27.14;102484.00;10503527;28;20039;-80
2022/03/15 08:26:38;;;;;;;0.10;0.10;;;;;;;23.80;27.49;102475.31;10502883;28;20442;-79
2022/03/15 08:31:40;;;;;;;0.00;0.00;;;;;;;24.38;27.05;102477.66;10502600;28;20112;-80
2022/03/15 08:36:44;;;;;;;1.10;0.50;;;;;;;24.97;25.63;102482.47;10501136;28;20048;-79
2022/03/15 08:41:46;;;;;;;0.00;0.00;;;;;;;24.31;26.47;102485.59;10517644;28;20546;-79
2022/03/15 08:46:49;;;;;;;0.20;0.20;;;;;;;26.49;23.94;102467.38;10502867;28;20055;-78
2022/03/15 08:51:51;;;;;;;0.00;0.00;;;;;;;27.02;23.34;102466.50;10502538;28;20487;-79
2022/03/15 08:56:53;;;;;;;0.93;0.10;;;;;;;25.62;25.41;102465.97;10501589;28;20126;-79
2022/03/15 09:01:55;;;;;;;0.08;0.08;;;;;;;26.75;24.00;102466.97;10516717;28;20072;-79
2022/03/15 09:06:57;;;;;;;0.00;0.00;;;;;;;26.86;23.41;102456.22;10499882;28;20554;-79
2022/03/15 09:11:58;;;;;;;0.00;0.00;;;;;;;27.34;23.71;102457.09;10501928;28;20479;-79
2022/03/15 09:17:00;;;;;;;0.00;0.00;;;;;;;24.67;26.51;102462.53;10502179;28;20040;-80
2022/03/15 09:22:04;;;;;;;0.10;0.10;;;;;;;26.81;24.29;102444.84;10515949;28;20090;-79
2022/03/15 09:27:06;;;;;;;0.00;0.00;;;;;;;28.05;22.35;102430.88;10499040;28;20090;-79
2022/03/15 09:32:10;;;;;;;0.20;0.20;;;;;;;26.65;23.84;102432.78;10500060;28;20032;-79
2022/03/15 09:37:12;;;;;;;0.00;0.00;;;;;;;26.78;24.52;102428.16;10499863;28;20054;-79
2022/03/15 09:42:18;;;;;;;0.13;0.13;;;;;;;26.67;23.89;102418.63;10499634;28;20127;-79
2022/03/15 09:47:24;;;;;;;0.10;0.10;;;;;;;26.16;24.63;102414.22;10498214;28;20053;-79
2022/03/15 09:52:27;;;;;;;1.70;1.60;;;;;;;25.22;26.30;102412.78;10499335;28;20041;-79
2022/03/15 09:57:31;;;;;;;0.00;0.00;;;;;;;25.94;25.66;102406.59;10499742;28;20123;-79
2022/03/15 10:02:34;;;;;;;0.00;0.00;;;;;;;27.72;22.20;102391.91;10514012;28;20094;-79
2022/03/15 10:07:37;;;;;;;0.00;0.00;;;;;;;27.36;23.23;102386.50;10498516;28;20048;-78
2022/03/15 10:12:38;;;;;;;0.00;0.00;;;;;;;27.75;23.97;102385.66;10514373;28;20483;-79
2022/03/15 10:17:53;;;;;;;0.68;0.68;;;;;;;27.27;23.02;102390.19;10497278;28;20519;-79
2022/03/15 10:23:00;;;;;;;0.00;0.00;;;;;;;27.38;23.00;102372.31;10498794;28;20127;-79
2022/03/15 10:28:09;;;;;;;0.00;0.00;;;;;;;28.59;21.33;102373.88;10497315;28;20032;-79
2022/03/15 10:33:17;;;;;;;0.00;0.00;;;;;;;28.23;22.87;102373.94;10497027;28;20078;-79
2022/03/15 10:38:18;;;;;;;0.00;0.00;;;;;;;27.63;22.94;102376.22;10496847;28;20487;-79
2022/03/15 10:43:23;;;;;;;0.00;0.00;;;;;;;27.79;23.02;102376.72;10497935;28;20046;-79
2022/03/15 10:48:30;;;;;;;0.00;0.00;;;;;;;28.73;21.97;102374.41;10497984;28;20128;-79
2022/03/15 10:53:45;;;;;;;0.68;0.68;;;;;;;28.56;22.81;102366.03;10496809;28;20424;-79
2022/03/15 10:58:49;;;;;;;0.00;0.00;;;;;;;28.41;22.85;102368.16;10498896;28;20074;-79
2022/03/15 11:04:00;;;;;;;0.73;0.17;;;;;;;25.96;24.04;102365.16;10499183;28;20590;-79
2022/03/15 11:09:14;;;;;;;0.00;0.00;;;;;;;26.51;23.99;102351.09;10499015;28;20111;-78
2022/03/15 11:14:36;;;;;;;0.00;0.00;;;;;;;27.28;23.67;102344.28;10547183;28;20032;-79
2022/03/15 11:19:40;;;;;;;0.00;0.00;;;;;;;26.98;23.62;102336.09;10589883;28;20074;-79
2022/03/15 11:24:45;;;;;;;0.03;0.03;;;;;;;26.94;23.78;102322.97;10590415;28;20493;-79
2022/03/15 11:29:47;;;;;;;0.00;0.00;;;;;;;26.78;23.94;102318.00;10570986;28;20057;-80
2022/03/15 11:34:50;;;;;;;0.32;0.28;;;;;;;26.07;24.12;102309.56;10571137;28;20081;-79
2022/03/15 11:39:53;;;;;;;7.80;2.25;;;;;;;24.24;25.78;102313.59;10562587;28;20078;-79
2022/03/15 11:45:16;;;;;;;0.35;0.35;;;;;;;26.83;22.12;102296.75;10546273;28;20473;-80
2022/03/15 11:50:48;;;;;;;0.05;0.05;;;;;;;27.22;21.98;102286.22;10561161;28;20046;-79
2022/03/15 11:56:33;;;;;;;0.20;0.20;;;;;;;27.82;22.19;102276.91;10545920;28;20055;-79
2022/03/15 12:02:01;;;;;;;0.00;0.00;;;;;;;27.79;21.65;102277.00;10521702;28;20044;-79
2022/03/15 12:07:03;;;;;;;0.05;0.05;;;;;;;27.78;21.94;102264.66;10544060;28;20052;-79
2022/03/15 12:12:07;;;;;;;0.25;0.20;;;;;;;26.64;23.61;102246.88;10543678;28;20123;-80
2022/03/15 12:17:13;;;;;;;0.10;0.10;;;;;;;27.89;21.42;102239.69;10526616;28;20047;-79
2022/03/15 12:22:37;;;;;;;0.30;0.30;;;;;;;26.65;22.85;102237.16;10527308;28;20044;-80
2022/03/15 12:27:51;;;;;;;24.05;2.75;;;;;;;28.16;21.45;102231.03;10525429;28;20043;-79
2022/03/15 12:32:55;;;;;;;0.08;0.08;;;;;;;26.98;21.78;102229.47;10526387;28;20044;-79
2022/03/15 12:38:11;;;;;;;3.58;1.50;;;;;;;24.95;24.62;102233.81;10509408;28;20485;-79
2022/03/15 12:43:23;;;;;;;0.63;0.40;;;;;;;26.47;23.71;102223.44;10513852;28;20128;-80
2022/03/15 12:48:31;;;;;;;0.10;0.10;;;;;;;27.65;21.45;102210.28;10528004;28;20063;-80
2022/03/15 12:53:39;;;;;;;4.60;1.35;;;;;;;27.37;21.27;102206.50;10513649;28;20558;-80
2022/03/15 12:58:41;;;;;;;0.00;0.00;;;;;;;28.37;21.05;102206.63;10529138;28;20186;-80
2022/03/15 13:03:43;;;;;;;7.00;1.95;;;;;;;25.35;24.35;102225.31;10511014;28;20059;-80
2022/03/15 13:08:56;;;;;;;1.65;1.00;;;;;;;26.55;23.25;102210.06;10527952;28;20072;-80
2022/03/15 13:14:00;;;;;;;0.30;0.22;;;;;;;26.68;22.21;102210.69;10544159;28;20048;-80
2022/03/15 13:19:03;;;;;;;1.92;1.48;;;;;;;25.65;24.06;102211.69;10528303;28;20048;-80
2022/03/15 13:24:10;;;;;;;0.75;0.57;;;;;;;27.22;21.55;102207.72;10512364;28;20036;-80
2022/03/15 13:29:13;;;;;;;0.00;0.00;;;;;;;28.87;20.26;102192.78;10513611;28;20463;-80
2022/03/15 13:34:25;;;;;;;1.58;0.73;;;;;;;26.49;23.33;102203.13;10524557;28;20123;-80
2022/03/15 13:39:27;;;;;;;0.57;0.47;;;;;;;26.81;22.31;102200.75;10511760;28;20047;-80
2022/03/15 13:44:37;;;;;;;0.00;0.00;;;;;;;29.22;19.84;102189.03;10511711;28;20046;-80
2022/03/15 13:49:41;;;;;;;0.38;0.38;;;;;;;28.63;21.07;102179.38;10530175;28;20052;-80
2022/03/15 13:55:02;;;;;;;0.32;0.13;;;;;;;30.13;19.35;102176.25;10530956;28;20399;-80
2022/03/15 14:00:17;;;;;;;0.00;0.00;;;;;;;29.27;20.33;102165.00;10533617;28;20040;-80
2022/03/15 14:05:23;;;;;;;2.13;1.50;;;;;;;25.53;23.80;102165.28;10538415;28;20113;-80
2022/03/15 14:10:25;;;;;;;0.28;0.10;;;;;;;27.26;21.85;102158.25;10533468;28;20077;-79
2022/03/15 14:15:29;;;;;;;0.38;0.20;;;;;;;27.92;22.01;102166.31;10514473;28;20040;-81
2022/03/15 14:20:33;;;;;;;0.00;0.00;;;;;;;28.32;20.37;102159.06;10532520;28;20036;-80
2022/03/15 14:25:36;;;;;;;0.00;0.00;;;;;;;29.27;19.72;102159.69;10547590;28;20074;-80
2022/03/15 14:30:42;;;;;;;0.00;0.00;;;;;;;28.30;20.97;102160.88;10541085;28;20134;-80
2022/03/15 14:35:44;;;;;;;2.05;0.82;;;;;;;27.54;22.14;102171.72;10531569;28;20537;-80
2022/03/15 14:40:52;;;;;;;0.95;0.70;;;;;;;28.72;20.12;102179.09;10513642;28;20040;-80
2022/03/15 14:46:00;;;;;;;0.00;0.00;;;;;;;28.69;20.04;102179.19;10528517;28;20101;-81
2022/03/15 14:52:02;;;;;;;0.00;0.00;;;;;;;29.39;19.99;102169.06;10534524;28;20082;-80
2022/03/15 14:57:38;;;;;;;0.57;0.45;;;;;;;28.01;21.26;102179.28;10321886;28;20075;-80
2022/03/15 15:02:53;;;;;;;0.20;0.20;;;;;;;27.69;21.39;102175.75;10377603;28;20046;-80
2022/03/15 15:07:55;;;;;;;0.00;0.00;;;;;;;28.85;20.18;102153.06;10351444;28;20052;-80
2022/03/15 15:12:57;;;;;;;0.00;0.00;;;;;;;29.75;19.19;102137.69;10442004;28;20647;-80
2022/03/15 15:17:58;;;;;;;0.00;0.00;;;;;;;30.42;18.80;102137.09;10533914;28;20514;-80
2022/03/15 15:23:00;;;;;;;0.00;0.00;;;;;;;30.06;19.54;102130.44;10520582;28;20135;-80
2022/03/15 15:28:03;;;;;;;0.00;0.00;;;;;;;29.21;20.36;102149.28;10539004;28;20140;-79
2022/03/15 15:33:06;;;;;;;0.13;0.05;;;;;;;27.90;21.21;102144.31;10521227;28;20131;-80
2022/03/15 15:38:10;;;;;;;0.00;0.00;;;;;;;30.51;19.56;102144.72;10520342;28;20603;-80
2022/03/15 15:43:12;;;;;;;0.00;0.00;;;;;;;30.06;19.79;102133.97;10536717;28;20070;-80
2022/03/15 15:48:14;;;;;;;0.00;0.00;;;;;;;29.66;19.79;102135.38;10536951;28;20118;-80
2022/03/15 15:53:19;;;;;;;0.00;0.00;;;;;;;30.37;19.37;102137.28;10519882;28;20085;-80
2022/03/15 15:58:22;;;;;;;0.00;0.00;;;;;;;31.29;18.27;102138.06;10519356;28;20047;-80
2022/03/15 16:03:25;;;;;;;0.00;0.00;;;;;;;29.59;19.97;102133.88;10529344;28;20044;-80
2022/03/15 16:08:27;;;;;;;0.00;0.00;;;;;;;30.37;18.58;102143.44;10512583;28;20050;-80
2022/03/15 16:13:29;;;;;;;0.28;0.28;;;;;;;30.57;18.57;102152.47;10515430;28;20083;-80
2022/03/15 16:18:30;;;;;;;0.00;0.00;;;;;;;29.74;19.78;102145.72;10513131;28;20051;-80
2022/03/15 16:23:33;;;;;;;0.00;0.00;;;;;;;28.84;20.57;102153.97;10515936;28;20043;-80
2022/03/15 16:28:34;;;;;;;0.32;0.20;;;;;;;28.74;20.73;102150.75;10515016;28;20593;-79
2022/03/15 16:33:37;;;;;;;0.15;0.08;;;;;;;28.68;21.62;102150.91;10511768;28;20044;-79
2022/03/15 16:38:39;;;;;;;0.00;0.00;;;;;;;27.11;23.12;102156.88;10532406;28;21168;-79
2022/03/15 16:43:41;;;;;;;0.00;0.00;;;;;;;26.92;23.69;102152.00;10496160;28;20111;-78
2022/03/15 16:48:42;;;;;;;0.00;0.00;;;;;;;26.82;23.45;102155.78;10534684;28;20072;-79
2022/03/15 16:53:44;;;;;;;0.00;0.00;;;;;;;27.23;22.62;102151.25;10515178;28;20119;-79
2022/03/15 17:09:34;;;;;;;0.00;0.00;;;;;;;30.38;19.31;102161.13;10531296;28;20938;-80
2022/03/15 17:14:38;;;;;;;0.00;0.00;;;;;;;29.24;20.38;102183.66;10513138;28;20040;-80
2022/03/15 17:19:50;;;;;;;0.00;0.00;;;;;;;28.37;21.01;102188.94;10531905;28;20052;-80
2022/03/15 17:25:02;;;;;;;0.00;0.00;;;;;;;29.19;20.69;102182.94;10531632;28;20044;-80
2022/03/15 17:30:12;;;;;;;0.00;0.00;;;;;;;29.73;19.77;102189.13;10525520;28;20139;-80
2022/03/15 17:35:25;;;;;;;0.00;0.00;;;;;;;29.17;20.17;102195.41;10524338;28;20105;-80
2022/03/15 17:40:32;;;;;;;0.00;0.00;;;;;;;28.47;20.82;102206.31;10514013;28;20048;-80
2022/03/15 17:45:34;;;;;;;0.00;0.00;;;;;;;28.65;20.83;102204.91;10545188;27;20067;-80
2022/03/15 17:50:37;;;;;;;0.00;0.00;;;;;;;29.03;19.99;102198.50;10541291;28;20040;-80
2022/03/15 17:55:40;;;;;;;0.05;0.05;;;;;;;28.84;20.24;102204.38;10522733;28;20331;-80
2022/03/15 18:00:43;;;;;;;0.00;0.00;;;;;;;29.01;19.81;102210.94;10526870;28;20039;-80
2022/03/15 18:05:45;;;;;;;0.00;0.00;;;;;;;29.04;19.57;102209.06;10533110;28;20079;-80
2022/03/15 18:10:47;;;;;;;0.00;0.00;;;;;;;29.22;19.44;102214.72;10533063;28;20044;-80
2022/03/15 18:15:50;;;;;;;0.00;0.00;;;;;;;27.73;21.05;102218.00;10499287;28;20047;-80
2022/03/15 18:20:53;;;;;;;0.00;0.00;;;;;;;26.23;23.24;102214.22;10526717;28;20036;-80
2022/03/15 18:25:58;;;;;;;0.00;0.00;;;;;;;26.79;22.42;102224.56;10528168;28;20493;-80
2022/03/15 18:30:59;;;;;;;0.00;0.00;;;;;;;27.92;20.70;102221.06;10521427;28;20873;-80
2022/03/15 18:36:01;;;;;;;0.00;0.00;;;;;;;26.89;22.22;102220.81;10527784;28;20045;-80
2022/03/15 18:41:06;;;;;;;0.00;0.00;;;;;;;28.03;20.21;102213.72;10493067;28;20153;-79
2022/03/15 18:46:30;;;;;;;0.00;0.00;;;;;;;27.02;21.07;102215.25;10520309;28;20044;-80
2022/03/15 18:51:34;;;;;;;0.00;0.00;;;;;;;26.83;21.52;102220.06;10516905;28;20048;-81
2022/03/15 18:56:38;;;;;;;0.00;0.00;;;;;;;26.19;22.03;102223.97;10535968;28;20566;-80
2022/03/15 19:01:39;;;;;;;0.08;0.08;;;;;;;26.29;22.27;102236.09;10529265;28;20492;-80
2022/03/15 19:06:43;;;;;;;0.00;0.00;;;;;;;25.33;23.11;102239.41;10524199;28;20073;-80
2022/03/15 19:11:46;;;;;;;0.00;0.00;;;;;;;25.81;22.08;102241.31;10548520;28;20068;-80
2022/03/15 19:16:48;;;;;;;0.00;0.00;;;;;;;26.13;22.49;102234.66;10530645;28;20040;-80
2022/03/15 19:21:53;;;;;;;0.00;0.00;;;;;;;25.64;23.15;102246.88;10509961;28;20127;-80
2022/03/15 19:26:54;;;;;;;0.00;0.00;;;;;;;26.13;22.67;102254.03;10526598;28;20399;-80
2022/03/15 19:31:57;;;;;;;0.00;0.00;;;;;;;21.60;28.52;102268.03;10507782;28;20046;-80
2022/03/15 19:36:59;;;;;;;0.00;0.00;;;;;;;21.97;28.65;102266.31;10513331;28;20036;-80
2022/03/15 19:42:09;;;;;;;0.00;0.00;;;;;;;24.48;25.42;102272.09;10535802;28;20086;-79
2022/03/15 19:47:12;;;;;;;0.00;0.00;;;;;;;24.11;25.13;102286.50;10535644;28;20128;-80
2022/03/15 19:52:16;;;;;;;0.00;0.00;;;;;;;24.18;24.54;102306.63;10535565;28;20468;-79
2022/03/15 19:57:25;;;;;;;0.00;0.00;;;;;;;24.22;25.05;102302.22;10520251;28;20036;-79
2022/03/15 20:02:27;;;;;;;0.08;0.08;;;;;;;20.88;29.81;102317.56;10529811;28;20051;-80
2022/03/15 20:07:31;;;;;;;0.00;0.00;;;;;;;25.39;22.96;102302.69;10520173;28;20048;-80
2022/03/15 20:12:35;;;;;;;0.00;0.00;;;;;;;24.89;23.83;102293.63;10531905;28;20578;-79
2022/03/15 20:17:40;;;;;;;0.00;0.00;;;;;;;24.11;24.73;102298.78;10511979;28;20135;-80
2022/03/15 20:22:41;;;;;;;0.10;0.10;;;;;;;24.79;23.23;102290.22;10517729;28;20036;-79
2022/03/15 20:27:44;;;;;;;0.00;0.00;;;;;;;24.34;23.02;102286.28;10506731;28;20578;-79
2022/03/15 20:32:46;;;;;;;0.00;0.00;;;;;;;25.02;22.93;102280.28;10545865;28;20471;-80
2022/03/15 20:37:48;;;;;;;0.00;0.00;;;;;;;23.68;24.40;102285.06;10531486;28;20071;-79
2022/03/15 20:48:20;;;;;;;0.00;0.00;;;;;;;24.34;22.57;102283.66;10531485;28;20202;-79
2022/03/15 20:53:26;;;;;;;0.10;0.10;;;;;;;23.99;23.64;102287.50;10512172;28;20122;-80
2022/03/15 20:58:29;;;;;;;0.00;0.00;;;;;;;23.88;24.18;102291.91;10529021;28;20086;-80
2022/03/15 21:03:33;;;;;;;0.80;0.45;;;;;;;21.92;26.51;102306.56;10527727;28;20135;-80
2022/03/15 21:08:38;;;;;;;0.08;0.08;;;;;;;19.14;31.70;102322.88;10533073;28;20049;-80
2022/03/15 21:13:42;;;;;;;0.03;0.03;;;;;;;22.77;24.74;102306.50;10511566;28;20044;-80
2022/03/15 21:18:44;;;;;;;0.47;0.45;;;;;;;21.98;25.92;102317.91;10534958;28;20035;-79
2022/03/15 21:23:47;;;;;;;1.33;1.23;;;;;;;17.90;33.42;102333.09;10515378;28;20048;-79
2022/03/15 21:28:49;;;;;;;0.00;0.00;;;;;;;20.05;29.51;102340.50;10535014;28;20118;-81
2022/03/15 21:33:50;;;;;;;2.22;1.90;;;;;;;18.63;31.60;102340.44;10515377;28;20101;-80
2022/03/15 21:38:55;;;;;;;0.20;0.10;;;;;;;20.89;27.58;102348.13;10516877;28;20036;-80
2022/03/15 21:43:58;;;;;;;0.00;0.00;;;;;;;23.38;23.45;102333.47;10534685;28;20044;-81
2022/03/15 21:49:01;;;;;;;0.00;0.00;;;;;;;21.38;27.33;102357.09;10516536;28;20052;-80
2022/03/15 21:54:03;;;;;;;0.00;0.00;;;;;;;23.22;24.53;102343.16;10500275;28;20372;-80
2022/03/15 21:59:04;;;;;;;0.00;0.00;;;;;;;23.25;24.21;102340.53;10515645;28;20625;-80
2022/03/15 22:04:06;;;;;;;0.00;0.00;;;;;;;23.13;24.07;102349.31;10531301;28;20137;-79
2022/03/15 22:09:08;;;;;;;0.00;0.00;;;;;;;22.41;24.17;102353.84;10511585;28;20490;-79
2022/03/15 22:14:12;;;;;;;0.00;0.00;;;;;;;23.13;23.69;102347.53;10532214;28;20028;-80
2022/03/15 22:19:13;;;;;;;0.00;0.00;;;;;;;23.57;22.65;102347.38;10515620;28;20040;-79
2022/03/15 22:24:15;;;;;;;0.00;0.00;;;;;;;22.32;24.01;102356.44;10511084;28;20074;-80
2022/03/15 22:29:17;;;;;;;0.00;0.00;;;;;;;22.19;24.19;102359.06;10537070;28;20410;-80
2022/03/15 23:16:56;;;;;;;0.00;0.00;;;;;;;21.82;23.80;102380.00;10518010;28;20059;-80
2022/03/15 23:27:21;;;;;;;0.00;0.00;;;;;;;21.36;24.20;102385.94;10535836;28;20127;-80
2022/03/15 23:32:23;;;;;;;0.00;0.00;;;;;;;21.87;24.26;102385.25;10521507;28;20051;-80
2022/03/15 23:37:25;;;;;;;0.00;0.00;;;;;;;20.51;26.24;102376.63;10523431;28;20127;-80
2022/03/15 23:42:27;;;;;;;0.00;0.00;;;;;;;21.40;24.72;102371.09;10519118;28;20064;-79
2022/03/15 23:47:30;;;;;;;0.00;0.00;;;;;;;18.61;27.92;102383.03;10522554;28;20135;-80
2022/03/15 23:52:32;;;;;;;1.95;1.85;;;;;;;16.94;31.72;102393.66;10538117;28;20052;-79
2022/03/15 23:57:34;;;;;;;0.00;0.00;;;;;;;18.31;28.38;102374.72;10534266;28;20044;-79
